createdAt,value
2023-02-26T00:05:19.548Z,2.1
2023-02-26T00:11:02.134Z,2.1
2023-02-26T00:16:40.115Z,1.9
2023-02-26T00:21:53.725Z,2
2023-02-26T00:27:45.064Z,1.9
2023-02-26T00:33:24.272Z,2.1
2023-02-26T00:38:37.954Z,2
2023-02-26T00:44:31.437Z,2.1
2023-02-26T00:49:46.370Z,1.9
2023-02-26T00:55:21.151Z,1.9
2023-02-26T01:01:08.680Z,1.9
2023-02-26T01:06:23.998Z,1.7
2023-02-26T01:12:11.939Z,1.7
2023-02-26T01:17:35.151Z,1.7
2023-02-26T01:23:24.583Z,1.8
2023-02-26T01:28:47.040Z,1.8
2023-02-26T01:34:33.959Z,1.9
2023-02-26T01:40:03.250Z,1.8
2023-02-26T01:45:30.896Z,1.6
2023-02-26T01:51:03.308Z,1.4
2023-02-26T01:56:43.838Z,1.3
2023-02-26T02:02:20.570Z,1.3
2023-02-26T02:07:57.187Z,1.4
2023-02-26T02:13:03.920Z,1.2
2023-02-26T02:18:51.677Z,1.3
2023-02-26T02:24:13.546Z,1.2
2023-02-26T02:29:48.188Z,1.3
2023-02-26T02:35:43.184Z,1.2
2023-02-26T02:41:16.356Z,1.2
2023-02-26T02:46:51.058Z,1.1
2023-02-26T02:52:02.692Z,1
2023-02-26T02:57:54.381Z,1
2023-02-26T03:03:08.181Z,1
2023-02-26T03:08:48.778Z,0.9
2023-02-26T03:14:34.970Z,0.9
2023-02-26T03:19:51.132Z,0.9
2023-02-26T03:25:42.267Z,0.7
2023-02-26T03:31:05.707Z,0.7
2023-02-26T03:36:54.064Z,0.6
2023-02-26T03:42:04.113Z,0.4
2023-02-26T03:47:54.560Z,0.5
2023-02-26T03:53:27.082Z,0.3
2023-02-26T03:58:55.997Z,0.2
2023-02-26T04:04:45.076Z,0.3
2023-02-26T04:10:09.000Z,0.3
2023-02-26T04:15:40.058Z,0.3
2023-02-26T04:21:00.460Z,0.4
2023-02-26T04:26:47.529Z,0.3
2023-02-26T04:32:11.330Z,0.2
2023-02-26T04:37:42.197Z,0.1
2023-02-26T04:43:34.973Z,0
2023-02-26T04:49:08.142Z,0
2023-02-26T04:54:43.914Z,0
2023-02-26T05:00:18.898Z,0
2023-02-26T05:05:32.356Z,-0.1
2023-02-26T05:11:18.861Z,-0.2
2023-02-26T05:16:50.626Z,-0.2
2023-02-26T05:22:22.970Z,-0.3
2023-02-26T05:27:50.467Z,-0.3
2023-02-26T05:33:23.798Z,-0.3
2023-02-26T05:38:58.834Z,-0.4
2023-02-26T05:44:31.347Z,-0.4
2023-02-26T05:50:18.403Z,-0.5
2023-02-26T05:55:29.634Z,-0.4
2023-02-26T06:01:04.335Z,-0.3
2023-02-26T06:06:52.263Z,-0.4
2023-02-26T06:12:27.004Z,-0.5
2023-02-26T06:18:03.314Z,-0.5
2023-02-26T06:23:41.813Z,-0.6
2023-02-26T06:28:59.652Z,-0.5
2023-02-26T06:34:42.982Z,-0.4
2023-02-26T06:40:04.560Z,-0.5
2023-02-26T06:45:49.561Z,-0.4
2023-02-26T06:51:28.308Z,-0.3
2023-02-26T06:56:56.963Z,-0.4
2023-02-26T07:02:26.709Z,-0.4
2023-02-26T07:08:00.696Z,-0.4
2023-02-26T07:13:44.189Z,-0.5
2023-02-26T07:19:16.890Z,-0.5
2023-02-26T07:24:45.941Z,-0.5
2023-02-26T07:30:02.940Z,-0.4
2023-02-26T07:35:51.536Z,-0.3
2023-02-26T07:41:31.567Z,-0.1
2023-02-26T07:47:07.760Z,0
2023-02-26T07:52:28.408Z,0.1
2023-02-26T07:58:14.987Z,0.1
2023-02-26T08:03:42.377Z,0
2023-02-26T08:09:10.185Z,0.1
2023-02-26T08:14:48.287Z,0
2023-02-26T08:20:29.268Z,0.1
2023-02-26T08:25:48.067Z,0.1
2023-02-26T08:31:24.738Z,0.1
2023-02-26T08:37:08.745Z,0.1
2023-02-26T08:42:34.443Z,0.3
2023-02-26T08:48:16.264Z,0.2
2023-02-26T08:53:50.746Z,0.5
2023-02-26T08:59:28.707Z,0.7
2023-02-26T09:04:53.134Z,0.9
2023-02-26T09:10:14.359Z,0.9
2023-02-26T09:15:51.839Z,0.8
2023-02-26T09:21:43.875Z,0.4
2023-02-26T09:27:19.299Z,0.3
2023-02-26T09:32:30.187Z,0.3
2023-02-26T09:38:04.227Z,0.3
2023-02-26T09:43:56.931Z,0.6
2023-02-26T09:49:23.503Z,0.6
2023-02-26T09:55:01.542Z,0.6
2023-02-26T10:00:36.823Z,0
2023-02-26T10:06:14.186Z,0.1
2023-02-26T10:11:45.361Z,0
2023-02-26T10:17:33.149Z,0
2023-02-26T10:22:45.535Z,0.3
2023-02-26T10:28:43.240Z,0.8
2023-02-26T10:34:10.997Z,1.3
2023-02-26T10:39:41.737Z,0.4
2023-02-26T10:50:44.769Z,0.1
2023-02-26T10:56:34.112Z,0.2
2023-02-26T11:07:31.412Z,0.7
2023-02-26T11:12:57.824Z,0.5
2023-02-26T11:35:32.824Z,0.9
2023-02-26T11:46:42.234Z,1.2
2023-02-26T11:52:26.628Z,1.1
2023-02-26T11:57:46.809Z,1.5
2023-02-26T12:03:30.606Z,1.3
2023-02-26T12:09:02.485Z,1.9
2023-02-26T12:25:45.837Z,1.6
2023-02-26T12:31:19.347Z,1.6
2023-02-26T12:36:53.668Z,2
2023-02-26T12:42:20.849Z,1.7
2023-02-26T12:48:12.345Z,2.1
2023-02-26T12:53:51.222Z,1.8
2023-02-26T12:59:06.277Z,1.8
2023-02-26T13:04:35.425Z,1
2023-02-26T13:10:34.943Z,1
2023-02-26T13:15:45.590Z,0.8
2023-02-26T13:21:45.317Z,0.6
2023-02-26T13:27:05.769Z,0.5
2023-02-26T13:32:32.367Z,0.5
2023-02-26T13:38:24.556Z,0.7
2023-02-26T13:43:59.642Z,0.6
2023-02-26T13:49:29.894Z,0.7
2023-02-26T13:55:07.150Z,0.6
2023-02-26T14:00:17.564Z,1.6
2023-02-26T14:06:16.788Z,1.3
2023-02-26T14:11:30.754Z,1.7
2023-02-26T14:17:08.536Z,1.8
2023-02-26T14:22:41.737Z,1.3
2023-02-26T14:28:36.827Z,1.6
2023-02-26T14:39:32.352Z,1.3
2023-02-26T14:45:06.452Z,1
2023-02-26T14:50:53.852Z,1.2
2023-02-26T14:56:29.597Z,1.2
2023-02-26T15:02:01.154Z,1.2
2023-02-26T15:07:25.007Z,1.2
2023-02-26T15:12:46.824Z,1
2023-02-26T15:18:46.489Z,0.6
2023-02-26T15:24:23.337Z,0.5
2023-02-26T15:29:49.166Z,0.7
2023-02-26T15:35:29.610Z,0.7
2023-02-26T15:40:47.786Z,0.7
2023-02-26T15:46:42.095Z,-0.1
2023-02-26T15:51:56.095Z,-0.1
2023-02-26T15:57:40.945Z,0.2
2023-02-26T16:03:20.521Z,0.5
2023-02-26T16:08:37.012Z,0.4
2023-02-26T16:14:10.777Z,0.4
2023-02-26T16:19:44.904Z,0.5
2023-02-26T16:25:17.513Z,0.4
2023-02-26T16:31:03.763Z,0.6
2023-02-26T16:41:53.257Z,0.7
2023-02-26T16:47:38.260Z,0.7
2023-02-26T16:53:00.689Z,0.7
2023-02-26T16:58:38.401Z,0.7
2023-02-26T17:04:20.093Z,0.7
2023-02-26T17:10:00.488Z,0.8
2023-02-26T17:15:39.846Z,0.7
2023-02-26T17:20:53.074Z,0.7
2023-02-26T17:26:27.409Z,0.7
2023-02-26T17:32:03.602Z,0.7
2023-02-26T17:37:41.114Z,0.7
2023-02-26T17:43:26.115Z,0.7
2023-02-26T17:48:52.038Z,0.7
2023-02-26T17:54:20.691Z,0.6
2023-02-26T18:00:03.746Z,0.5
2023-02-26T18:05:40.509Z,0.4
2023-02-26T18:11:12.192Z,0.5
2023-02-26T18:16:46.870Z,0.3
2023-02-26T18:22:05.045Z,0.3
2023-02-26T18:27:53.348Z,0.5
2023-02-26T18:33:36.264Z,0.4
2023-02-26T18:38:49.506Z,0.4
2023-02-26T18:44:22.206Z,0.4
2023-02-26T18:50:07.666Z,0.5
2023-02-26T18:55:27.431Z,0.5
2023-02-26T19:01:20.979Z,0.5
2023-02-26T19:06:53.296Z,0.5
2023-02-26T19:12:15.906Z,0.5
2023-02-26T19:17:58.967Z,0.3
2023-02-26T19:23:36.686Z,0.1
2023-02-26T19:34:54.832Z,0.2
2023-02-26T19:40:18.437Z,0.2
2023-02-26T19:45:59.778Z,0.2
2023-02-26T19:51:12.289Z,0.2
2023-02-26T19:56:49.443Z,0.3
2023-02-26T20:02:28.404Z,0.3
2023-02-26T20:08:05.492Z,0.3
2023-02-26T20:13:43.660Z,0.2
2023-02-26T20:18:59.265Z,0.1
2023-02-26T20:24:57.895Z,0.1
2023-02-26T20:30:14.206Z,0.2
2023-02-26T20:35:44.690Z,0.1
2023-02-26T20:41:16.701Z,0.2
2023-02-26T20:47:09.739Z,0.1
2023-02-26T20:52:45.375Z,0.1
2023-02-26T20:57:58.802Z,0.1
2023-02-26T21:03:43.485Z,0
2023-02-26T21:09:23.087Z,0
2023-02-26T21:14:41.611Z,0.1
2023-02-26T21:20:20.228Z,0.1
2023-02-26T21:25:43.327Z,0.1
2023-02-26T21:31:33.301Z,0.1
2023-02-26T21:36:56.084Z,0.2
2023-02-26T21:42:45.470Z,0.2
2023-02-26T21:47:58.189Z,0.2
2023-02-26T21:53:41.808Z,0.2
2023-02-26T21:59:17.344Z,0.2
2023-02-26T22:04:47.596Z,0.2
2023-02-26T22:10:29.953Z,0.2
2023-02-26T22:16:04.411Z,0.2
2023-02-26T22:21:19.340Z,0.1
2023-02-26T22:26:58.331Z,0.1
2023-02-26T22:32:34.651Z,0.1
2023-02-26T22:38:18.912Z,0.1
2023-02-26T22:43:35.943Z,0
2023-02-26T22:49:13.753Z,0
2023-02-26T22:54:42.552Z,0
2023-02-26T23:00:23.567Z,0.1
2023-02-26T23:06:03.176Z,0
2023-02-26T23:11:36.672Z,0.1
2023-02-26T23:17:03.487Z,0.1
2023-02-26T23:22:48.890Z,0
2023-02-26T23:28:26.351Z,0
2023-02-26T23:33:48.730Z,0
2023-02-26T23:39:17.936Z,0
2023-02-26T23:45:01.850Z,0
2023-02-26T23:50:21.888Z,0
2023-02-26T23:55:53.966Z,0
